Flight Track Log - Related Links

Times and Time Zones

All times are in EDT time to prevent confusion due to time zone crossing. See the EJM19 flight status page for this flight to view local times or setup timezone preferences in your user account.

Time Position Orientation Groundspeed Altitude Reporting Facility
EDT Latitude Longitude Course Direction KTS MPH feet Rate Location/Type
Mon 05:30:33 PM 40.8167 -74.1333 72° East 242 278 1,500  Level New York TRACON
Mon 05:31:33 PM 40.8167 -74.2333 270° West 266 306 5,200 2,300 Climbing New York TRACON
Mon 05:32:33 PM 40.8833 -74.2500 349° North 328 377 6,100 450 Climbing New York TRACON
Mon 05:33:33 PM 40.9667 -74.2167 17° North 299 344 6,100 -50 Level New York TRACON
Mon 05:34:33 PM 41.0500 -74.1833 17° North 307 353 6,000 1,437 Descending New York TRACON
Mon 05:35:00 PM 41.1777 -74.0224 72° East  Level FlightAware Approximate
Mon 05:36:20 PM 41.1342 -74.0661 46° Northeast 316 364 10,100  Level Boston Center
Mon 05:37:20 PM 41.1733 -73.9347 68° East 332 382 11,000 450 Climbing Boston Center
Mon 05:38:20 PM 41.2169 -73.7867 69° East 374 430 11,000  Level Boston Center
Mon 05:39:20 PM 41.2517 -73.6686 69° East 384 442 11,000  Level Boston Center
Mon 05:40:20 PM 41.2656 -73.5197 83° East 378 435 11,000 500 Level Boston Center
Mon 05:41:20 PM 41.2708 -73.3956 87° East 369 425 12,000 950 Climbing Boston Center
Mon 05:42:20 PM 41.2783 -73.2603 86° East 369 425 12,900 1,100 Climbing Boston Center
Mon 05:43:20 PM 41.2856 -73.1031 86° East 376 433 14,200 1,100 Climbing Boston Center
Mon 05:44:20 PM 41.2906 -72.9678 87° East 385 443 15,100 400 Climbing Boston Center
Mon 05:45:20 PM 41.2972 -72.8103 87° East 392 451 15,000 -50 Descending Boston Center
Mon 05:46:20 PM 41.3039 -72.6778 86° East 392 451 15,000  Level Boston Center
Mon 05:47:44 PM 41.3125 -72.4981 86° East 402 463 15,000  Level Boston Center
Mon 05:48:55 PM 41.3186 -72.3047 88° East 402 463 15,000  Level Boston Center
Mon 05:49:56 PM 41.3289 -72.1389 85° East 402 463 15,000  Level Boston Center
Mon 05:50:30 PM 41.3306 -72.0364 89° East 404 465 15,000  Level Boston Center
Mon 05:51:01 PM 41.3344 -71.9647 86° East 404 465 15,000 -419 Level Boston Center
Mon 05:51:56 PM 41.3403 -71.8594 86° East 402 463 14,400 -1,565 Descending Boston Center
Mon 05:52:56 PM 41.3475 -71.6964 87° East 373 429 12,000 -2,050 Descending Boston Center
Mon 05:53:56 PM 41.3531 -71.5800 86° East 355 409 10,300 -2,150 Descending Boston Center
Mon 05:54:56 PM 41.3583 -71.4528 87° East 329 379 7,700 -1,650 Descending Boston Center
Mon 05:55:56 PM 41.3636 -71.3558 86° East 298 343 7,000 -550 Descending Boston Center
Mon 05:56:56 PM 41.3686 -71.2342 87° East 287 330 6,600 -850 Descending Boston Center
Mon 05:57:56 PM 41.3717 -71.1428 87° East 288 331 5,300 -800 Descending Boston Center
Mon 05:58:56 PM 41.3789 -71.0375 85° East 264 304 5,000 -300 Descending Boston Center
Mon 05:59:56 PM 41.3775 -70.9408 91° East 274 315 4,700 -950 Descending Boston Center
Mon 06:00:56 PM 41.3572 -70.8306 104° East 274 315 3,100 -1,350 Descending Boston Center
Mon 06:01:56 PM 41.3978 -70.7575 53° Northeast 256 295 2,000 -550 Descending Boston Center
Mon 06:02:56 PM 41.4492 -70.6925 43° Northeast 237 273 2,000  Level Boston Center
Mon 06:03:56 PM 41.4858 -70.6444 44° Northeast 231 266 2,000 -50 Level Boston Center
Mon 06:04:56 PM 41.5369 -70.5903 38° Northeast 224 258 1,900 -50 Descending Boston Center
Mon 06:05:56 PM 41.5464 -70.5206 80° East 184 212 1,900  Level Boston Center
Mon 06:06:56 PM 41.5247 -70.4742 122° Southeast 162 186 1,900 50 Level Boston Center
Mon 06:07:56 PM 41.4856 -70.5086 213° Southwest 91 105 2,000 -200 Climbing Boston Center
Mon 06:08:56 PM 41.4550 -70.5428 220° Southwest 114 131 1,500 -450 Descending Boston Center
Mon 06:09:56 PM 41.4344 -70.5656 220° Southwest 120 138 1,100 -273 Descending Boston Center
Mon 06:11:08 PM 41.4119 -70.5939 223° Southwest 114 131 900 -167 Descending Boston Center
Mon 06:13:00 PM 41.3833 -70.6000 203° Southwest  Level FlightAware Approximate

Login

Don't have an account? Register now (free) for customized features, flight alerts, and more!